Time;durP1;ratioP1;P1;durP2;ratioP2;P2;SDS_P1;SDS_P2;PMS_P1;PMS_P2;Temp;Humidity;BMP_temperature;BMP_pressure;BME280_temperature;BME280_humidity;BME280_pressure;Samples;Min_cycle;Max_cycle;Signal;HPM_P1;HPM_P2
2022/04/09 00:00:55;;;;;;;10.48;2.17;;;;;;;3.65;85.56;100299.16;5050293;28;20037;-68
2022/04/09 00:03:21;;;;;;;15.25;3.35;;;;;;;3.68;86.05;100304.09;5050142;28;20365;-68
2022/04/09 00:05:47;;;;;;;6.38;1.80;;;;;;;3.63;85.92;100310.88;5049807;28;20412;-68
2022/04/09 00:08:12;;;;;;;9.82;2.80;;;;;;;3.65;85.90;100319.44;5048564;28;20033;-68
2022/04/09 00:10:38;;;;;;;10.23;3.90;;;;;;;3.55;86.42;100310.88;5050056;28;20036;-68
2022/04/09 00:13:03;;;;;;;12.40;3.17;;;;;;;3.61;86.67;100334.75;5048698;28;20041;-68
2022/04/09 00:15:29;;;;;;;12.07;3.83;;;;;;;3.64;86.37;100344.16;5048760;28;20029;-68
2022/04/09 00:17:54;;;;;;;11.63;3.92;;;;;;;3.71;86.43;100345.16;5049957;28;20030;-68
2022/04/09 00:20:19;;;;;;;16.65;4.60;;;;;;;3.77;86.35;100355.03;5049883;28;20094;-70
2022/04/09 00:22:45;;;;;;;12.23;3.05;;;;;;;3.78;86.06;100346.16;5049771;28;20032;-68
2022/04/09 00:25:12;;;;;;;18.42;3.70;;;;;;;3.78;86.10;100359.34;5049831;28;20040;-68
2022/04/09 00:27:39;;;;;;;16.20;3.40;;;;;;;3.67;85.71;100355.22;5049560;28;20033;-68
2022/04/09 00:30:06;;;;;;;10.88;3.90;;;;;;;3.68;85.85;100366.56;5049238;28;20033;-68
2022/04/09 00:32:32;;;;;;;6.25;3.03;;;;;;;3.62;86.21;100365.41;5049608;28;20056;-68
2022/04/09 00:34:57;;;;;;;11.80;2.90;;;;;;;3.59;86.23;100363.13;5049389;28;20116;-68
2022/04/09 00:37:23;;;;;;;13.15;4.72;;;;;;;3.56;86.45;100371.31;5049085;28;20036;-68
2022/04/09 00:39:48;;;;;;;16.30;3.28;;;;;;;3.60;86.46;100372.66;5048217;28;20110;-68
2022/04/09 00:42:15;;;;;;;9.95;1.95;;;;;;;3.56;86.06;100375.78;5049413;28;20350;-68
2022/04/09 00:44:40;;;;;;;8.77;2.25;;;;;;;3.59;86.08;100378.94;5049403;28;20112;-68
2022/04/09 00:47:06;;;;;;;9.95;2.25;;;;;;;3.62;86.29;100380.44;5049554;28;20119;-68
2022/04/09 00:49:32;;;;;;;10.48;2.92;;;;;;;3.55;86.15;100382.88;5049401;28;20052;-68
2022/04/09 00:52:00;;;;;;;8.15;2.03;;;;;;;3.57;86.46;100390.63;5048641;28;20167;-68
2022/04/09 00:54:29;;;;;;;11.48;2.50;;;;;;;3.48;86.39;100393.25;5049357;28;20032;-68
2022/04/09 00:56:59;;;;;;;13.73;2.25;;;;;;;3.46;86.39;100399.69;5049386;28;20041;-68
2022/04/09 00:59:26;;;;;;;10.35;2.25;;;;;;;3.47;86.24;100409.22;5049295;28;20029;-68
2022/04/09 01:01:53;;;;;;;6.57;2.60;;;;;;;3.47;85.97;100414.50;5049316;28;20400;-68
2022/04/09 01:04:19;;;;;;;11.48;3.15;;;;;;;3.49;85.79;100413.34;5049119;28;20036;-68
2022/04/09 01:06:45;;;;;;;10.43;1.77;;;;;;;3.55;85.57;100413.69;5048974;28;20353;-68
2022/04/09 01:09:10;;;;;;;13.52;2.63;;;;;;;3.56;85.05;100420.59;5047829;28;20037;-68
2022/04/09 01:11:39;;;;;;;11.73;2.60;;;;;;;3.54;85.22;100417.28;5049017;28;20028;-68
2022/04/09 01:14:04;;;;;;;14.68;2.42;;;;;;;3.56;84.95;100428.50;5047995;28;20460;-68
2022/04/09 01:16:30;;;;;;;7.88;2.25;;;;;;;3.57;84.77;100436.28;5049223;28;20036;-68
2022/04/09 01:19:00;;;;;;;5.30;1.50;;;;;;;3.55;84.36;100427.69;5049058;28;20090;-68
2022/04/09 01:21:27;;;;;;;14.73;3.63;;;;;;;3.43;84.38;100419.28;5049141;28;20024;-68
2022/04/09 01:23:54;;;;;;;11.85;2.50;;;;;;;3.50;84.71;100444.00;5049066;28;20037;-68
2022/04/09 01:26:19;;;;;;;11.75;3.47;;;;;;;3.44;85.03;100446.47;5048973;28;20044;-68
2022/04/09 01:28:47;;;;;;;11.43;2.22;;;;;;;3.38;84.97;100437.38;5049031;28;20040;-68
2022/04/09 01:31:12;;;;;;;5.15;1.48;;;;;;;3.40;85.17;100458.28;5049113;28;20025;-68
2022/04/09 01:33:38;;;;;;;5.55;2.38;;;;;;;3.37;85.12;100464.72;5048908;28;20036;-68
2022/04/09 01:36:04;;;;;;;7.03;1.67;;;;;;;3.35;85.27;100461.41;5048987;28;20021;-68
2022/04/09 01:38:29;;;;;;;8.90;2.97;;;;;;;3.32;85.61;100464.34;5048993;28;20036;-68
2022/04/09 01:40:54;;;;;;;10.60;2.13;;;;;;;3.30;85.74;100474.22;5048940;28;20980;-68
2022/04/09 01:43:21;;;;;;;12.45;2.80;;;;;;;3.28;85.77;100478.84;5048792;28;20041;-68
2022/04/09 01:45:47;;;;;;;12.65;4.00;;;;;;;3.25;85.96;100485.28;5048933;28;20492;-68
2022/04/09 01:48:12;;;;;;;14.23;3.53;;;;;;;3.15;86.36;100474.03;5048750;28;20032;-68
2022/04/09 01:50:38;;;;;;;11.07;1.88;;;;;;;3.12;86.30;100500.69;5048811;28;20028;-68
2022/04/09 01:53:03;;;;;;;8.60;2.30;;;;;;;3.03;86.95;100497.16;5048666;28;20168;-68
2022/04/09 01:55:28;;;;;;;6.28;2.80;;;;;;;3.00;86.59;100504.56;5050098;28;20024;-68
2022/04/09 01:57:54;;;;;;;8.45;2.42;;;;;;;2.95;87.13;100504.19;5052836;28;20128;-70
2022/04/09 02:00:20;;;;;;;13.15;2.47;;;;;;;2.93;87.04;100512.25;5052530;28;20065;-67
2022/04/09 02:02:46;;;;;;;9.27;2.95;;;;;;;2.87;87.51;100512.06;5052388;28;20039;-68
2022/04/09 02:05:13;;;;;;;16.95;4.93;;;;;;;2.85;87.60;100515.66;5052555;28;20553;-68
2022/04/09 02:07:39;;;;;;;12.07;2.05;;;;;;;2.82;87.80;100521.22;5052396;28;20033;-68
2022/04/09 02:10:05;;;;;;;18.30;3.70;;;;;;;2.73;87.72;100521.34;5052336;28;20476;-68
2022/04/09 02:12:35;;;;;;;7.88;2.90;;;;;;;2.72;88.09;100531.03;5052278;28;20025;-67
2022/04/09 02:15:05;;;;;;;16.70;3.85;;;;;;;2.71;87.97;100534.66;5052223;28;20083;-70
2022/04/09 02:17:31;;;;;;;11.55;2.60;;;;;;;2.70;88.00;100537.44;5052227;28;20048;-68
2022/04/09 02:19:56;;;;;;;9.52;2.70;;;;;;;2.68;87.85;100537.59;5052165;28;20020;-70
2022/04/09 02:22:23;;;;;;;7.60;1.58;;;;;;;2.64;88.32;100537.06;5052095;28;20045;-68
2022/04/09 02:24:52;;;;;;;7.05;1.83;;;;;;;2.67;88.01;100554.34;5052269;28;20132;-68
2022/04/09 02:27:17;;;;;;;5.53;2.20;;;;;;;2.66;88.29;100554.53;5052199;28;20071;-68
2022/04/09 02:29:42;;;;;;;8.75;3.63;;;;;;;2.65;88.04;100551.06;5050558;28;20705;-68
2022/04/09 02:32:08;;;;;;;13.80;3.53;;;;;;;2.66;88.23;100559.81;5050551;28;20695;-68
2022/04/09 02:34:33;;;;;;;15.95;3.60;;;;;;;2.61;88.19;100560.25;5051703;28;20098;-68
2022/04/09 02:36:59;;;;;;;15.35;4.53;;;;;;;2.63;88.25;100568.81;5051836;28;20064;-68
2022/04/09 02:39:24;;;;;;;8.73;2.22;;;;;;;2.67;88.33;100562.25;5051921;28;20021;-68
2022/04/09 02:41:52;;;;;;;8.60;2.13;;;;;;;2.70;88.07;100569.88;5051832;28;20029;-68
2022/04/09 02:44:17;;;;;;;9.55;2.53;;;;;;;2.72;88.15;100577.59;5051602;28;20033;-68
2022/04/09 02:46:43;;;;;;;13.30;4.93;;;;;;;2.68;88.20;100579.72;5051541;28;20062;-68
2022/04/09 02:49:08;;;;;;;14.40;2.90;;;;;;;2.69;87.97;100591.91;5051681;28;20040;-68
2022/04/09 02:51:34;;;;;;;10.55;2.08;;;;;;;2.70;88.09;100587.47;5051464;28;20502;-68
2022/04/09 02:53:59;;;;;;;8.73;3.13;;;;;;;2.78;87.76;100596.28;5051669;28;20028;-68
2022/04/09 02:56:24;;;;;;;9.60;2.25;;;;;;;2.86;87.89;100595.50;5051530;28;20033;-68
2022/04/09 02:58:50;;;;;;;8.65;2.78;;;;;;;2.96;87.45;100601.53;5051384;28;20547;-68
2022/04/09 03:01:15;;;;;;;14.25;2.53;;;;;;;3.03;86.90;100605.19;5051391;28;20472;-68
2022/04/09 03:03:40;;;;;;;9.77;1.65;;;;;;;3.02;86.30;100587.72;5051269;28;20033;-68
2022/04/09 03:06:06;;;;;;;8.85;2.55;;;;;;;3.13;86.17;100606.91;5050937;28;20661;-68
2022/04/09 03:08:31;;;;;;;9.75;2.33;;;;;;;3.19;86.06;100619.44;5050527;28;20483;-68
2022/04/09 03:10:56;;;;;;;8.93;2.33;;;;;;;3.24;85.84;100622.44;5051253;28;20419;-68
2022/04/09 03:13:22;;;;;;;12.77;3.17;;;;;;;3.25;85.61;100617.03;5051218;28;20145;-68
2022/04/09 03:15:47;;;;;;;11.95;5.25;;;;;;;3.26;85.42;100621.31;5051167;28;20063;-68
2022/04/09 03:18:12;;;;;;;18.45;3.38;;;;;;;3.22;85.30;100619.13;5051120;28;20025;-68
2022/04/09 03:20:38;;;;;;;12.05;1.92;;;;;;;3.26;84.88;100634.50;5049940;28;20037;-68
2022/04/09 03:23:03;;;;;;;8.40;1.88;;;;;;;3.29;84.56;100638.63;5051005;28;20926;-70
2022/04/09 03:25:29;;;;;;;6.93;2.50;;;;;;;3.24;84.70;100633.00;5049618;28;20487;-68
2022/04/09 03:27:54;;;;;;;8.35;2.13;;;;;;;3.30;84.59;100650.81;5050945;28;20036;-68
2022/04/09 03:30:20;;;;;;;6.43;1.50;;;;;;;3.30;84.65;100653.44;5050921;28;20159;-68
2022/04/09 03:32:45;;;;;;;5.07;1.45;;;;;;;3.27;84.45;100659.03;5050896;28;20025;-68
2022/04/09 03:35:12;;;;;;;9.73;2.28;;;;;;;3.22;84.36;100656.03;5049502;28;20025;-68
2022/04/09 03:37:38;;;;;;;4.05;1.60;;;;;;;3.16;84.78;100654.84;5049452;28;20067;-68
2022/04/09 03:40:05;;;;;;;5.32;1.80;;;;;;;3.11;84.84;100648.38;5049471;28;20583;-68
2022/04/09 03:42:31;;;;;;;10.45;2.55;;;;;;;3.05;85.09;100657.72;5050379;28;20067;-70
2022/04/09 03:44:56;;;;;;;10.77;2.78;;;;;;;2.97;85.41;100657.66;5050565;28;20038;-68
2022/04/09 03:47:21;;;;;;;6.45;2.28;;;;;;;2.90;85.54;100654.78;5050426;28;20056;-68
2022/04/09 03:49:47;;;;;;;8.65;1.95;;;;;;;2.85;85.62;100657.88;5050550;28;20021;-68
2022/04/09 03:52:13;;;;;;;9.88;2.33;;;;;;;2.79;85.29;100658.50;5050122;28;20060;-68
2022/04/09 03:54:39;;;;;;;11.82;3.08;;;;;;;2.77;85.78;100668.34;5050236;28;20032;-68
2022/04/09 03:57:04;;;;;;;7.97;2.33;;;;;;;2.73;85.74;100666.19;5050317;28;20028;-68
2022/04/09 03:59:30;;;;;;;1.95;1.20;;;;;;;2.64;86.00;100668.69;5082383;28;20075;-68
2022/04/09 04:01:55;;;;;;;4.55;1.73;;;;;;;2.60;86.25;100672.63;5050303;28;20039;-68
2022/04/09 04:04:21;;;;;;;6.43;1.85;;;;;;;2.55;86.45;100680.16;5049936;28;20392;-68
2022/04/09 04:06:48;;;;;;;3.97;1.58;;;;;;;2.50;86.71;100687.66;5050121;28;20064;-68
2022/04/09 04:09:14;;;;;;;8.18;1.35;;;;;;;2.47;86.85;100692.41;5050171;28;20025;-68
2022/04/09 04:11:40;;;;;;;6.88;2.45;;;;;;;2.42;86.95;100687.56;5048915;28;20028;-68
2022/04/09 04:14:05;;;;;;;8.80;1.65;;;;;;;2.36;87.38;100694.25;5050005;28;20112;-67
2022/04/09 04:16:31;;;;;;;10.15;2.40;;;;;;;2.30;87.65;100696.63;5050012;28;20555;-68
2022/04/09 04:18:56;;;;;;;6.13;2.10;;;;;;;2.29;87.81;100700.25;5049564;28;20036;-68
2022/04/09 04:21:22;;;;;;;7.22;1.55;;;;;;;2.25;87.97;100704.97;5048658;28;20103;-68
2022/04/09 04:23:47;;;;;;;6.63;2.15;;;;;;;2.24;88.48;100710.38;5049815;28;20125;-68
2022/04/09 04:26:12;;;;;;;13.10;2.85;;;;;;;2.17;88.12;100707.50;5049762;28;20033;-68
2022/04/09 04:28:38;;;;;;;8.65;1.90;;;;;;;2.18;88.67;100722.31;5049622;28;20033;-68
2022/04/09 04:31:04;;;;;;;7.07;2.42;;;;;;;2.10;88.73;100712.53;5049671;28;20476;-68
2022/04/09 04:33:29;;;;;;;7.00;2.05;;;;;;;2.13;88.80;100714.03;5049793;28;20070;-68
2022/04/09 04:35:55;;;;;;;10.20;2.20;;;;;;;2.10;88.80;100723.03;5049715;28;20040;-68
2022/04/09 04:38:23;;;;;;;16.83;2.20;;;;;;;2.08;88.82;100725.00;5049704;28;20496;-68
2022/04/09 04:40:48;;;;;;;10.27;2.55;;;;;;;2.05;89.24;100727.09;5049628;28;20021;-68
2022/04/09 04:43:14;;;;;;;10.45;2.88;;;;;;;2.04;89.33;100738.56;5049405;28;20135;-68
2022/04/09 04:45:39;;;;;;;8.38;2.95;;;;;;;2.03;89.33;100731.66;5049542;28;20033;-68
2022/04/09 04:48:05;;;;;;;5.10;1.30;;;;;;;2.00;89.21;100731.94;5049540;28;20025;-68
2022/04/09 04:50:30;;;;;;;8.88;2.55;;;;;;;1.97;89.56;100741.78;5049596;28;20128;-68
2022/04/09 04:52:56;;;;;;;4.78;1.90;;;;;;;1.95;89.40;100738.47;5049277;28;20059;-69
2022/04/09 04:55:22;;;;;;;6.43;2.05;;;;;;;2.02;89.52;100757.13;5049365;28;20025;-68
2022/04/09 04:57:51;;;;;;;8.23;2.40;;;;;;;2.03;89.34;100750.91;5049081;28;20115;-68
2022/04/09 05:00:22;;;;;;;5.88;2.28;;;;;;;2.06;89.22;100755.03;5049199;28;20017;-68
2022/04/09 05:02:49;;;;;;;6.45;2.88;;;;;;;2.06;89.49;100755.84;5049175;28;20021;-68
2022/04/09 05:05:14;;;;;;;11.18;2.85;;;;;;;2.06;89.26;100758.50;5049182;28;20158;-68
2022/04/09 05:07:48;;;;;;;10.73;2.10;;;;;;;2.08;89.23;100768.88;5049229;28;20108;-68
2022/04/09 05:10:15;;;;;;;6.18;1.75;;;;;;;2.08;89.48;100767.06;5049204;28;20104;-68
2022/04/09 05:12:42;;;;;;;13.40;2.42;;;;;;;2.14;89.08;100763.03;5049132;28;20025;-68
2022/04/09 05:15:09;;;;;;;6.10;2.30;;;;;;;2.19;89.27;100776.59;5048995;28;20159;-68
2022/04/09 05:17:35;;;;;;;8.20;1.92;;;;;;;2.23;89.04;100785.88;5049001;28;20037;-68
2022/04/09 05:20:02;;;;;;;14.15;3.35;;;;;;;2.19;88.61;100780.03;5049101;28;20062;-68
2022/04/09 05:22:28;;;;;;;12.93;2.72;;;;;;;2.32;89.16;100797.31;5049034;28;20033;-68
2022/04/09 05:24:54;;;;;;;16.20;3.45;;;;;;;2.34;88.58;100790.13;5048949;28;20045;-68
2022/04/09 05:27:20;;;;;;;11.63;2.20;;;;;;;2.45;88.56;100803.09;5048829;28;20472;-68
2022/04/09 05:29:45;;;;;;;6.72;1.77;;;;;;;2.48;88.44;100802.78;5049171;28;20082;-68
2022/04/09 05:32:10;;;;;;;16.38;3.83;;;;;;;2.52;88.51;100809.44;5053019;28;20463;-68
2022/04/09 05:34:36;;;;;;;21.73;3.00;;;;;;;2.58;88.35;100818.56;5053007;28;20041;-68
2022/04/09 05:37:01;;;;;;;12.02;3.47;;;;;;;2.67;87.98;100822.94;5052888;28;20036;-68
2022/04/09 05:39:27;;;;;;;8.00;2.33;;;;;;;2.76;87.94;100824.69;5052762;28;20037;-68
2022/04/09 05:41:52;;;;;;;8.00;1.65;;;;;;;2.87;86.88;100834.22;5052797;28;20017;-68
2022/04/09 05:44:17;;;;;;;8.00;2.80;;;;;;;2.95;87.31;100834.28;5052606;28;20029;-68
2022/04/09 05:46:43;;;;;;;7.45;2.38;;;;;;;3.05;86.38;100834.25;5052789;28;20111;-68
2022/04/09 05:49:08;;;;;;;15.65;5.03;;;;;;;3.13;85.96;100844.03;5052743;28;20029;-68
2022/04/09 05:51:35;;;;;;;13.68;3.58;;;;;;;3.21;85.96;100844.94;5052505;28;20449;-68
2022/04/09 05:54:01;;;;;;;9.80;2.55;;;;;;;3.24;85.46;100849.09;5052415;28;20036;-68
2022/04/09 05:56:26;;;;;;;8.35;2.72;;;;;;;3.28;85.23;100853.09;5051372;28;20025;-68
2022/04/09 05:58:51;;;;;;;10.10;2.38;;;;;;;3.28;85.13;100858.38;5052434;28;20063;-68
2022/04/09 06:01:17;;;;;;;11.18;2.67;;;;;;;3.32;85.29;100853.63;5052517;28;20029;-68
2022/04/09 06:03:42;;;;;;;18.30;2.60;;;;;;;3.25;84.80;100856.88;5052454;28;20036;-68
2022/04/09 06:06:09;;;;;;;11.73;1.95;;;;;;;3.17;84.96;100858.56;5051064;28;20408;-68
2022/04/09 06:08:34;;;;;;;11.68;2.50;;;;;;;3.16;85.10;100875.38;5051758;28;20079;-68
2022/04/09 06:11:00;;;;;;;10.77;2.75;;;;;;;3.20;85.76;100877.56;5052214;28;20056;-68
2022/04/09 06:13:26;;;;;;;9.13;1.77;;;;;;;3.24;85.35;100883.38;5052392;28;20032;-68
2022/04/09 06:15:52;;;;;;;8.88;2.45;;;;;;;3.33;85.51;100877.22;5052412;28;20020;-68
2022/04/09 06:18:17;;;;;;;13.45;3.35;;;;;;;3.49;85.68;100885.28;5052290;28;20039;-68
2022/04/09 06:20:42;;;;;;;12.20;1.92;;;;;;;3.74;85.22;100896.06;5052265;28;20034;-77
2022/04/09 06:23:08;;;;;;;16.90;3.33;;;;;;;4.11;83.96;100890.63;5051837;28;20028;-68
2022/04/09 06:25:34;;;;;;;14.05;1.88;;;;;;;4.39;83.17;100907.13;5052044;28;20072;-68
2022/04/09 06:27:59;;;;;;;29.73;3.72;;;;;;;4.98;82.40;100909.94;5051919;28;20342;-68
2022/04/09 06:30:25;;;;;;;7.80;3.25;;;;;;;5.82;79.39;100921.41;5051944;28;20043;-68
2022/04/09 06:32:50;;;;;;;6.63;1.85;;;;;;;6.17;77.77;100932.69;5051215;28;20075;-68
2022/04/09 06:35:16;;;;;;;16.95;3.25;;;;;;;6.33;76.61;100937.97;5051654;28;20033;-67
2022/04/09 06:37:41;;;;;;;13.35;2.45;;;;;;;6.41;76.50;100937.16;5051716;28;20052;-68
2022/04/09 06:40:09;;;;;;;9.60;3.33;;;;;;;6.32;77.74;100928.41;5051790;28;20464;-68
2022/04/09 06:42:38;;;;;;;6.20;1.70;;;;;;;6.07;78.36;100945.28;5051414;28;20060;-68
2022/04/09 06:45:04;;;;;;;8.93;2.80;;;;;;;5.67;79.01;100933.63;5051743;28;20029;-68
2022/04/09 06:47:30;;;;;;;5.85;1.38;;;;;;;5.27;78.17;100969.53;5051689;28;20507;-68
2022/04/09 06:49:56;;;;;;;8.00;1.95;;;;;;;4.92;80.55;100976.63;5051156;28;20074;-68
2022/04/09 06:52:22;;;;;;;13.52;1.70;;;;;;;4.66;82.81;100974.00;5050755;28;20083;-68
2022/04/09 06:54:48;;;;;;;6.38;2.05;;;;;;;4.48;84.81;100984.63;5050950;28;20040;-68
2022/04/09 06:57:13;;;;;;;9.57;2.35;;;;;;;4.39;85.77;100990.81;5051388;28;20060;-67
2022/04/09 06:59:38;;;;;;;8.73;2.13;;;;;;;4.26;85.47;100999.09;5051438;28;20021;-68
2022/04/09 07:02:04;;;;;;;13.98;2.58;;;;;;;4.23;86.93;101011.78;5051408;28;20087;-68
2022/04/09 07:04:29;;;;;;;8.73;2.63;;;;;;;4.12;85.32;101010.22;5049933;28;20025;-68
2022/04/09 07:06:55;;;;;;;7.45;2.55;;;;;;;4.04;86.09;101018.88;5051116;28;20041;-68
2022/04/09 07:09:20;;;;;;;6.30;2.30;;;;;;;3.94;87.30;101020.75;5050540;28;20028;-68
2022/04/09 07:11:45;;;;;;;2.97;1.77;;;;;;;3.87;85.59;101003.84;5051025;28;20029;-68
2022/04/09 07:14:11;;;;;;;5.15;1.58;;;;;;;3.71;87.18;100984.22;5051076;28;20064;-68
2022/04/09 07:16:36;;;;;;;2.58;1.23;;;;;;;3.68;87.37;100984.53;5051057;28;20032;-67
2022/04/09 07:19:01;;;;;;;1.83;1.13;;;;;;;3.71;87.65;100999.22;5050971;28;20028;-67
2022/04/09 07:21:28;;;;;;;5.22;1.27;;;;;;;3.76;87.92;100989.06;5050933;28;20106;-68
2022/04/09 07:23:53;;;;;;;2.05;1.10;;;;;;;3.83;88.71;100998.03;5050937;28;20035;-67
2022/04/09 07:26:20;;;;;;;5.90;1.40;;;;;;;3.92;88.40;100999.78;5050878;28;20127;-68
2022/04/09 07:28:46;;;;;;;6.45;2.17;;;;;;;4.04;88.78;100986.38;5050498;28;20090;-68
2022/04/09 07:31:11;;;;;;;4.32;1.95;;;;;;;4.36;88.54;101005.13;5050607;28;20028;-68
2022/04/09 07:33:37;;;;;;;9.63;2.22;;;;;;;4.71;87.56;101010.50;5050221;28;20393;-68
2022/04/09 07:36:03;;;;;;;5.30;1.70;;;;;;;4.94;86.65;101010.84;5050651;28;20037;-68
2022/04/09 07:38:29;;;;;;;5.70;2.00;;;;;;;5.12;86.83;101013.44;5050665;28;20538;-68
2022/04/09 07:40:54;;;;;;;4.07;2.13;;;;;;;5.41;85.58;101021.81;5050662;28;20032;-68
2022/04/09 07:43:19;;;;;;;5.38;2.40;;;;;;;5.59;86.51;101016.44;5050295;28;20510;-68
2022/04/09 07:45:46;;;;;;;4.18;2.00;;;;;;;5.67;85.32;101019.13;5049904;28;20033;-67
2022/04/09 07:48:11;;;;;;;12.95;4.05;;;;;;;5.87;84.81;101024.97;5050387;28;20029;-68
2022/04/09 07:50:37;;;;;;;6.47;2.25;;;;;;;6.29;84.16;101025.91;5050340;28;20021;-68
2022/04/09 07:53:02;;;;;;;4.60;2.30;;;;;;;6.95;83.04;101022.22;5048179;28;21138;-68
2022/04/09 07:55:28;;;;;;;10.02;3.03;;;;;;;7.15;81.02;101030.66;5049539;28;20060;-68
2022/04/09 07:57:54;;;;;;;6.47;2.50;;;;;;;6.92;79.27;101030.53;5050251;28;20518;-68
2022/04/09 08:00:22;;;;;;;11.82;2.45;;;;;;;6.66;80.64;101033.38;5049884;28;20029;-68
2022/04/09 08:02:47;;;;;;;7.82;3.10;;;;;;;6.47;81.52;101033.69;5050086;28;20056;-68
2022/04/09 08:05:12;;;;;;;13.40;3.08;;;;;;;6.33;81.43;101037.81;5050074;28;20033;-67
2022/04/09 08:07:39;;;;;;;4.55;2.65;;;;;;;6.28;82.29;101046.25;5050002;28;20040;-67
2022/04/09 08:10:05;;;;;;;9.15;3.10;;;;;;;6.32;83.58;101044.13;5048730;28;20079;-67
2022/04/09 08:12:31;;;;;;;6.63;2.88;;;;;;;6.48;83.63;101054.72;5050010;28;20070;-68
2022/04/09 08:14:57;;;;;;;4.82;2.72;;;;;;;6.82;80.58;101050.25;5049981;28;20024;-68
2022/04/09 08:17:23;;;;;;;16.55;4.65;;;;;;;7.05;80.84;101061.81;5049961;28;20021;-68
2022/04/09 08:19:48;;;;;;;13.05;3.13;;;;;;;7.23;79.69;101059.81;5049954;28;20444;-67
2022/04/09 08:22:14;;;;;;;8.90;3.20;;;;;;;7.32;78.49;101059.78;5049787;28;20439;-67
2022/04/09 08:24:41;;;;;;;8.27;2.40;;;;;;;7.58;77.47;101039.13;5049892;28;20082;-67
2022/04/09 08:27:08;;;;;;;6.40;2.83;;;;;;;8.38;71.33;101042.47;5049634;28;20068;-67
2022/04/09 08:29:34;;;;;;;6.50;2.65;;;;;;;8.83;71.97;101049.63;5049523;28;20025;-69
2022/04/09 08:32:01;;;;;;;5.68;1.90;;;;;;;9.24;67.26;101054.53;5049605;28;20039;-68
2022/04/09 08:34:29;;;;;;;13.30;2.72;;;;;;;8.92;71.18;101040.53;5049225;28;20029;-67
2022/04/09 08:36:55;;;;;;;9.20;2.58;;;;;;;9.39;71.49;101054.53;5048155;28;20440;-67
2022/04/09 08:39:21;;;;;;;7.18;2.58;;;;;;;9.81;70.63;101061.84;5048931;28;20039;-67
2022/04/09 08:41:47;;;;;;;5.97;2.65;;;;;;;9.52;69.32;101118.63;5049207;28;20033;-68
2022/04/09 08:44:13;;;;;;;3.45;1.20;;;;;;;8.02;68.83;101136.84;5049000;28;20040;-68
2022/04/09 08:46:41;;;;;;;2.50;1.67;;;;;;;6.37;74.17;101105.38;5049544;28;20025;-68
2022/04/09 08:49:08;;;;;;;0.70;0.70;;;;;;;5.31;75.22;101092.50;5049465;28;20395;-68
2022/04/09 08:51:33;;;;;;;3.20;0.98;;;;;;;4.71;77.75;101095.06;5049125;28;20045;-67
2022/04/09 08:54:03;;;;;;;1.35;0.88;;;;;;;4.40;80.41;101087.50;5049193;28;20051;-67
2022/04/09 08:56:34;;;;;;;4.10;1.02;;;;;;;4.20;81.53;101088.66;5049030;28;20496;-67
2022/04/09 08:59:00;;;;;;;3.47;1.30;;;;;;;4.13;82.56;101096.31;5047798;28;20338;-67
2022/04/09 09:01:26;;;;;;;2.70;1.20;;;;;;;4.11;85.14;101104.41;5049144;28;20094;-67
2022/04/09 09:03:52;;;;;;;1.63;1.35;;;;;;;4.20;86.08;101115.88;5049079;28;20033;-67
2022/04/09 09:06:31;;;;;;;13.73;2.97;;;;;;;4.50;87.71;101114.69;5049328;28;20423;-67
2022/04/09 09:09:01;;;;;;;5.65;2.45;;;;;;;4.88;86.89;101111.91;5049147;28;20021;-68
2022/04/09 09:11:27;;;;;;;5.43;1.52;;;;;;;5.11;84.36;101106.91;5048721;28;20039;-67
2022/04/09 09:13:58;;;;;;;2.30;1.60;;;;;;;5.30;85.05;101105.91;5048989;28;20048;-68
2022/04/09 09:16:31;;;;;;;2.08;1.23;;;;;;;5.60;81.93;101097.47;5049005;28;20025;-67
2022/04/09 09:19:03;;;;;;;3.30;1.50;;;;;;;5.99;82.05;101102.28;5049128;28;20035;-67
2022/04/09 09:21:28;;;;;;;2.13;1.67;;;;;;;6.35;81.58;101113.47;5049225;28;20412;-68
2022/04/09 09:24:16;;;;;;;1.85;1.20;;;;;;;6.66;81.20;101120.00;5048872;28;20061;-68
2022/04/09 09:26:41;;;;;;;4.05;1.92;;;;;;;6.83;77.65;101124.31;5048677;28;20127;-68
2022/04/09 09:29:08;;;;;;;6.07;1.45;;;;;;;6.85;77.70;101126.81;5048948;28;20112;-68
2022/04/09 09:31:44;;;;;;;8.25;2.55;;;;;;;6.98;74.51;101138.56;5048683;28;20032;-68
2022/04/09 09:34:14;;;;;;;2.85;1.30;;;;;;;7.03;73.32;101153.97;5049048;28;20024;-68
2022/04/09 09:36:43;;;;;;;2.33;0.70;;;;;;;6.76;71.36;101153.31;5048571;28;20029;-68
2022/04/09 09:39:10;;;;;;;0.70;0.55;;;;;;;6.38;73.01;101157.38;5048932;28;20067;-68
2022/04/09 09:41:54;;;;;;;2.28;1.00;;;;;;;6.05;72.63;101154.63;5048859;28;20098;-68
2022/04/09 09:44:21;;;;;;;3.65;0.80;;;;;;;5.77;74.49;101143.38;5048852;28;20524;-68
2022/04/09 09:46:49;;;;;;;2.65;0.73;;;;;;;5.58;73.53;101136.50;5048956;28;20029;-68
2022/04/09 09:49:16;;;;;;;2.00;0.88;;;;;;;5.61;73.71;101124.78;5048867;28;20025;-68
2022/04/09 09:51:42;;;;;;;1.70;0.90;;;;;;;6.02;73.41;101144.31;5048675;28;20462;-68
2022/04/09 09:54:13;;;;;;;1.17;0.88;;;;;;;6.40;73.40;101139.50;5045406;28;20512;-69
2022/04/09 09:56:41;;;;;;;1.73;1.10;;;;;;;6.85;71.27;101142.72;5044166;28;20029;-68
2022/04/09 09:59:13;;;;;;;1.00;0.90;;;;;;;7.16;69.98;101146.34;5043805;28;20025;-69
2022/04/09 10:01:44;;;;;;;2.38;0.90;;;;;;;7.46;71.71;101144.78;5044544;28;20032;-68
2022/04/09 10:04:14;;;;;;;3.28;1.50;;;;;;;7.73;69.77;101140.13;5044313;28;20238;-68
2022/04/09 10:06:42;;;;;;;2.25;1.35;;;;;;;7.93;70.15;101140.53;5044648;28;20682;-68
2022/04/09 10:09:08;;;;;;;7.75;1.88;;;;;;;8.01;70.56;101145.78;5044914;28;20380;-67
2022/04/09 10:11:46;;;;;;;9.32;2.22;;;;;;;8.08;68.68;101140.63;5048473;28;20035;-68
2022/04/09 10:14:14;;;;;;;4.60;1.48;;;;;;;8.11;69.02;101132.31;5048282;28;20036;-68
2022/04/09 10:16:43;;;;;;;2.35;1.98;;;;;;;8.34;73.50;101130.53;5048615;28;20420;-68
2022/04/09 10:19:10;;;;;;;2.70;1.67;;;;;;;8.58;69.19;101120.78;5050861;28;20028;-68
2022/04/09 10:21:39;;;;;;;6.40;1.98;;;;;;;8.80;66.58;101121.75;5051831;28;20032;-68
2022/04/09 10:24:13;;;;;;;11.88;2.45;;;;;;;8.98;66.01;101126.78;5051723;28;20210;-68
2022/04/09 10:26:38;;;;;;;2.47;1.77;;;;;;;9.18;64.67;101119.94;5051596;28;20028;-68
2022/04/09 10:29:10;;;;;;;9.00;2.00;;;;;;;9.34;64.43;101110.97;5051742;28;20033;-68
2022/04/09 10:31:39;;;;;;;4.15;2.65;;;;;;;9.69;65.34;101116.59;5051945;28;20029;-68
2022/04/09 10:34:07;;;;;;;15.02;3.85;;;;;;;9.90;62.60;101125.66;5051993;28;20036;-69
2022/04/09 10:36:44;;;;;;;4.47;2.35;;;;;;;9.71;63.17;101129.72;5051535;28;20150;-69
2022/04/09 10:39:29;;;;;;;5.72;2.10;;;;;;;9.36;62.37;101126.78;5051832;28;20036;-69
2022/04/09 10:41:58;;;;;;;4.95;1.90;;;;;;;9.39;62.69;101132.56;5050528;28;20484;-68
2022/04/09 10:44:51;;;;;;;4.03;1.73;;;;;;;9.44;61.67;101132.03;5051661;28;20099;-68
2022/04/09 10:47:18;;;;;;;4.43;1.25;;;;;;;9.31;58.60;101135.31;5051776;28;20107;-68
2022/04/09 10:50:05;;;;;;;4.40;1.70;;;;;;;9.46;60.72;101132.66;5051204;28;20521;-68
2022/04/09 10:52:34;;;;;;;2.75;1.55;;;;;;;9.45;57.79;101133.66;5051067;28;20622;-68
2022/04/09 10:55:12;;;;;;;3.35;1.55;;;;;;;9.31;60.26;101139.81;5051462;28;20056;-68
2022/04/09 10:57:42;;;;;;;2.92;1.63;;;;;;;9.23;61.15;101134.56;5051426;28;20112;-68
2022/04/09 11:00:28;;;;;;;4.22;1.85;;;;;;;9.37;61.78;101133.75;5051235;28;20037;-69
2022/04/09 11:03:17;;;;;;;4.40;2.20;;;;;;;9.78;59.31;101128.00;5051251;28;20028;-68
2022/04/09 11:05:43;;;;;;;4.95;1.58;;;;;;;9.63;52.51;101120.00;5051074;28;20047;-68
2022/04/09 11:08:14;;;;;;;4.45;1.77;;;;;;;9.35;52.73;101131.28;5049301;28;20033;-69
2022/04/09 11:10:44;;;;;;;2.95;1.35;;;;;;;9.21;52.25;101127.56;5050614;28;20604;-68
2022/04/09 11:13:12;;;;;;;6.22;1.70;;;;;;;9.48;52.55;101132.47;5051127;28;20461;-69
2022/04/09 11:15:39;;;;;;;4.57;1.50;;;;;;;9.66;53.27;101136.41;5050602;28;20025;-68
2022/04/09 11:18:05;;;;;;;4.22;1.45;;;;;;;9.76;50.77;101122.00;5050977;28;20066;-68
2022/04/09 11:20:33;;;;;;;2.58;0.95;;;;;;;9.72;49.45;101144.69;5050813;28;20449;-69
2022/04/09 11:23:08;;;;;;;4.68;1.50;;;;;;;9.80;51.16;101141.97;5051028;28;20029;-68
2022/04/09 11:25:33;;;;;;;2.53;1.20;;;;;;;9.89;50.07;101132.84;5050794;28;20062;-69
2022/04/09 11:28:12;;;;;;;4.10;1.20;;;;;;;10.12;50.51;101131.91;5049286;28;20487;-69
2022/04/09 11:30:38;;;;;;;4.80;1.15;;;;;;;10.28;49.46;101137.03;5050428;28;20028;-69